Time;durP1;ratioP1;P1;durP2;ratioP2;P2;SDS_P1;SDS_P2;PMS_P1;PMS_P2;Temp;Humidity;BMP_temperature;BMP_pressure;BME280_temperature;BME280_humidity;BME280_pressure;Samples;Min_cycle;Max_cycle;Signal;HPM_P1;HPM_P2
2021/11/04 00:01:10;;;;;;;24.25;12.68;;;;;;;9.62;97.06;96396.84;5035346;28;20076;-57
2021/11/04 00:03:35;;;;;;;26.42;13.63;;;;;;;9.47;97.10;96391.78;5037460;28;20462;-57
2021/11/04 00:06:01;;;;;;;21.48;12.40;;;;;;;9.67;96.11;96399.19;5036792;28;20037;-55
2021/11/04 00:08:26;;;;;;;49.28;15.00;;;;;;;8.97;99.42;96393.94;5041042;28;20028;-57
2021/11/04 00:10:51;;;;;;;34.15;13.55;;;;;;;8.78;100.00;96381.22;5039257;28;20037;-55
2021/11/04 00:13:17;;;;;;;35.00;13.75;;;;;;;8.81;100.00;96381.03;5040439;28;20321;-57
2021/11/04 00:15:42;;;;;;;25.67;13.10;;;;;;;9.27;99.30;96381.66;5039296;28;20521;-57
2021/11/04 00:18:10;;;;;;;27.83;12.45;;;;;;;9.49;97.27;96376.91;5040318;28;20437;-58
2021/11/04 00:20:35;;;;;;;25.17;12.25;;;;;;;9.61;97.11;96370.91;5039377;28;20036;-59
2021/11/04 00:23:02;;;;;;;26.55;12.25;;;;;;;9.40;96.08;96360.94;5040583;28;20033;-58
2021/11/04 00:25:27;;;;;;;30.00;13.35;;;;;;;9.19;97.71;96365.72;5035665;28;20033;-58
2021/11/04 00:27:53;;;;;;;30.30;14.02;;;;;;;9.25;97.48;96341.09;5038206;28;20051;-55
2021/11/04 00:30:18;;;;;;;36.38;14.40;;;;;;;8.86;99.81;96337.41;5038007;28;20527;-55
2021/11/04 00:32:49;;;;;;;29.60;12.63;;;;;;;9.36;96.24;96322.22;5039205;28;20029;-55
2021/11/04 00:35:15;;;;;;;26.02;12.48;;;;;;;9.24;96.83;96313.38;5040379;28;20521;-56
2021/11/04 00:37:41;;;;;;;29.20;13.32;;;;;;;9.20;97.07;96309.31;5040538;28;20028;-55
2021/11/04 00:40:08;;;;;;;22.98;12.52;;;;;;;9.26;97.03;96306.31;5040524;28;20025;-54
2021/11/04 00:42:33;;;;;;;21.83;11.20;;;;;;;9.63;95.05;96319.59;5038776;28;20028;-58
2021/11/04 00:44:59;;;;;;;21.58;12.43;;;;;;;9.35;95.19;96316.16;5040205;28;20037;-55
2021/11/04 00:47:24;;;;;;;24.20;12.93;;;;;;;9.23;95.55;96322.97;5040122;28;20048;-56
2021/11/04 00:49:50;;;;;;;22.52;12.13;;;;;;;9.00;98.08;96332.19;5040341;28;20037;-57
2021/11/04 00:52:15;;;;;;;21.35;12.35;;;;;;;9.29;97.25;96332.16;5038966;28;20111;-55
2021/11/04 00:54:40;;;;;;;17.02;9.50;;;;;;;9.57;96.47;96330.41;5040403;28;20024;-56
2021/11/04 00:57:06;;;;;;;23.48;12.30;;;;;;;9.54;94.48;96322.78;5040293;28;20033;-56
2021/11/04 00:59:31;;;;;;;26.38;12.65;;;;;;;9.45;94.37;96311.22;5040706;28;20090;-55
2021/11/04 01:01:57;;;;;;;24.10;12.52;;;;;;;9.29;94.83;96293.13;5039194;28;20041;-56
2021/11/04 01:04:22;;;;;;;21.05;12.13;;;;;;;9.50;93.36;96285.72;5038663;28;20067;-55
2021/11/04 01:06:47;;;;;;;15.52;8.52;;;;;;;9.40;96.97;96285.47;5039515;28;20098;-55
2021/11/04 01:09:13;;;;;;;23.10;11.93;;;;;;;9.28;95.21;96294.03;5040137;28;20017;-57
2021/11/04 01:11:38;;;;;;;26.67;13.27;;;;;;;9.05;96.75;96301.53;5038405;28;20407;-56
2021/11/04 01:14:03;;;;;;;24.02;11.18;;;;;;;9.06;98.81;96308.41;5039012;28;20062;-55
2021/11/04 01:16:29;;;;;;;22.58;13.00;;;;;;;9.42;95.42;96317.44;5039614;28;20045;-56
2021/11/04 01:18:54;;;;;;;21.20;11.93;;;;;;;9.43;94.61;96320.88;5039624;28;20078;-55
2021/11/04 01:21:20;;;;;;;21.58;12.65;;;;;;;9.31;94.71;96319.88;5038916;28;20045;-57
2021/11/04 01:23:45;;;;;;;22.67;12.05;;;;;;;9.55;93.08;96311.44;5039969;28;20060;-55
2021/11/04 01:26:11;;;;;;;23.13;11.82;;;;;;;9.55;93.18;96311.44;5037685;28;20037;-56
2021/11/04 01:28:36;;;;;;;24.50;13.85;;;;;;;9.20;94.84;96320.53;5039837;28;20033;-56
2021/11/04 01:31:02;;;;;;;23.92;13.45;;;;;;;9.20;95.69;96314.50;5038806;28;20690;-57
2021/11/04 01:33:27;;;;;;;23.67;12.45;;;;;;;9.27;96.57;96310.59;5039945;28;20025;-57
2021/11/04 01:35:53;;;;;;;21.52;11.80;;;;;;;9.25;97.04;96309.88;5038635;28;20451;-57
2021/11/04 01:38:19;;;;;;;28.45;14.05;;;;;;;8.94;98.26;96305.72;5039942;28;20124;-55
2021/11/04 01:40:45;;;;;;;23.98;11.55;;;;;;;9.34;95.23;96300.66;5038484;28;20036;-58
2021/11/04 01:43:11;;;;;;;27.90;13.63;;;;;;;9.34;94.64;96305.84;5039751;28;20017;-55
2021/11/04 01:45:37;;;;;;;24.52;13.80;;;;;;;9.18;96.31;96300.78;5039518;28;20037;-57
2021/11/04 01:48:02;;;;;;;25.42;13.63;;;;;;;9.16;96.08;96303.47;5039977;28;20029;-57
2021/11/04 01:50:29;;;;;;;23.27;12.13;;;;;;;9.17;97.35;96306.91;5036776;28;20037;-55
2021/11/04 01:52:55;;;;;;;24.83;13.40;;;;;;;9.26;96.05;96301.13;5039200;28;20086;-56
2021/11/04 01:55:27;;;;;;;24.10;12.50;;;;;;;9.23;96.82;96302.16;5039195;28;20036;-56
2021/11/04 01:57:53;;;;;;;;;;;;;;;9.24;95.85;96297.78;5038655;28;20032;-57
2021/11/04 02:00:21;;;;;;;20.80;11.98;;;;;;;9.45;94.93;96286.03;5038762;28;19908;-58
2021/11/04 02:02:55;;;;;;;20.73;11.80;;;;;;;9.28;96.22;96288.84;5038900;28;20074;-57
2021/11/04 02:05:27;;;;;;;22.17;12.18;;;;;;;9.47;95.70;96287.69;5038826;28;20538;-56
2021/11/04 02:08:03;;;;;;;23.55;12.80;;;;;;;9.40;95.66;96280.25;5038913;28;20029;-55
2021/11/04 02:10:36;;;;;;;26.33;13.95;;;;;;;9.31;96.66;96267.84;5038237;28;20821;-57
2021/11/04 02:13:09;;;;;;;25.38;12.18;;;;;;;9.43;94.51;96269.69;5039350;28;20035;-58
2021/11/04 02:15:38;;;;;;;24.67;12.55;;;;;;;9.03;97.57;96271.34;5038280;28;20033;-55
2021/11/04 02:18:08;;;;;;;24.77;12.23;;;;;;;9.38;97.22;96265.69;5039276;28;20031;-57
2021/11/04 02:20:43;;;;;;;22.02;11.43;;;;;;;9.11;98.19;96256.09;5038144;28;20758;-56
2021/11/04 02:23:25;;;;;;;22.45;12.07;;;;;;;9.20;96.64;96259.88;5039293;28;20021;-58
2021/11/04 02:25:52;;;;;;;32.47;13.57;;;;;;;9.22;96.16;96263.22;5038596;28;20503;-57
2021/11/04 02:28:19;;;;;;;22.27;12.57;;;;;;;9.30;95.17;96257.53;5037906;28;20037;-56
2021/11/04 02:30:46;;;;;;;18.92;10.90;;;;;;;9.18;98.48;96256.56;5036766;28;20932;-57
2021/11/04 02:33:12;;;;;;;22.02;11.57;;;;;;;9.05;99.30;96257.31;5038990;28;20070;-56
2021/11/04 02:35:44;;;;;;;20.05;11.35;;;;;;;9.21;98.77;96252.00;5038580;28;20041;-59
2021/11/04 02:38:10;;;;;;;22.13;11.80;;;;;;;9.02;98.86;96267.06;5038477;28;20570;-58
2021/11/04 02:40:36;;;;;;;22.88;12.48;;;;;;;8.93;98.52;96272.84;5037307;28;20044;-58
2021/11/04 02:43:01;;;;;;;20.58;11.15;;;;;;;9.32;99.40;96277.34;5038870;28;20028;-57
2021/11/04 02:45:27;;;;;;;23.80;11.27;;;;;;;9.19;98.94;96273.81;5038132;28;20036;-57
2021/11/04 02:47:53;;;;;;;23.65;12.90;;;;;;;9.20;97.86;96270.28;5038338;28;20039;-56
2021/11/04 02:50:20;;;;;;;23.23;12.65;;;;;;;8.97;99.45;96264.78;5037130;28;20040;-56
2021/11/04 02:52:46;;;;;;;23.52;11.90;;;;;;;9.06;98.99;96263.34;5037326;28;20112;-56
2021/11/04 02:55:11;;;;;;;27.55;13.02;;;;;;;8.98;98.81;96261.22;5036644;28;20539;-56
2021/11/04 02:57:47;;;;;;;29.45;14.30;;;;;;;9.05;99.75;96256.50;5038433;28;20627;-55
2021/11/04 03:00:15;;;;;;;25.08;12.60;;;;;;;9.35;96.75;96256.31;5037672;28;20021;-58
2021/11/04 03:02:41;;;;;;;30.55;14.48;;;;;;;9.01;97.32;96261.03;5038507;28;20028;-56
2021/11/04 03:05:07;;;;;;;24.27;13.32;;;;;;;8.95;98.74;96258.84;5037259;28;20029;-56
2021/11/04 03:07:33;;;;;;;27.05;13.32;;;;;;;9.33;95.89;96259.94;5037940;28;20072;-56
2021/11/04 03:09:58;;;;;;;26.13;13.45;;;;;;;9.53;94.58;96261.28;5038281;28;20040;-58
2021/11/04 03:12:24;;;;;;;27.50;13.60;;;;;;;9.33;95.92;96260.78;5037287;28;20037;-56
2021/11/04 03:14:49;;;;;;;29.27;14.05;;;;;;;8.89;97.49;96261.81;5036912;28;20040;-56
2021/11/04 03:17:16;;;;;;;29.83;13.95;;;;;;;9.31;96.17;96264.41;5038319;28;20047;-55
2021/11/04 03:19:41;;;;;;;26.48;12.93;;;;;;;9.27;96.61;96271.59;5036736;28;20024;-57
2021/11/04 03:22:07;;;;;;;28.42;13.40;;;;;;;8.97;97.78;96264.78;5035681;28;20119;-57
2021/11/04 03:24:33;;;;;;;26.60;13.05;;;;;;;9.15;96.56;96261.94;5037993;28;20020;-58
2021/11/04 03:26:59;;;;;;;26.23;13.55;;;;;;;9.14;97.41;96260.28;5038131;28;20402;-58
2021/11/04 03:29:27;;;;;;;27.92;14.00;;;;;;;9.14;97.69;96260.28;5037349;28;20031;-57
2021/11/04 03:31:55;;;;;;;24.08;12.52;;;;;;;9.24;96.15;96250.94;5036226;28;20522;-56
2021/11/04 03:34:22;;;;;;;26.75;13.13;;;;;;;9.13;98.80;96248.19;5038028;28;20025;-58
2021/11/04 03:36:50;;;;;;;28.58;13.40;;;;;;;8.93;98.73;96245.06;5036255;28;20545;-56
2021/11/04 03:39:19;;;;;;;17.58;9.38;;;;;;;9.39;97.13;96244.78;5038527;28;20418;-58
2021/11/04 03:41:46;;;;;;;30.23;14.23;;;;;;;9.11;96.84;96247.47;5038979;28;20041;-57
2021/11/04 03:44:12;;;;;;;27.88;11.73;;;;;;;9.35;96.74;96238.09;5040766;28;20025;-57
2021/11/04 03:46:37;;;;;;;25.08;13.15;;;;;;;9.31;95.30;96234.03;5041914;28;20040;-57
2021/11/04 03:49:04;;;;;;;19.77;10.60;;;;;;;9.41;97.24;96218.66;5037604;28;20029;-57
2021/11/04 03:51:31;;;;;;;26.15;12.60;;;;;;;9.19;96.51;96211.38;5040374;28;20645;-58
2021/11/04 03:53:56;;;;;;;17.48;9.38;;;;;;;9.62;94.75;96214.66;5041799;28;20067;-57
2021/11/04 03:56:22;;;;;;;19.70;10.85;;;;;;;9.21;97.05;96210.38;5040893;28;20712;-56
2021/11/04 03:58:48;;;;;;;21.27;10.25;;;;;;;9.22;97.92;96208.59;5042289;28;20083;-58
2021/11/04 04:01:14;;;;;;;20.60;10.43;;;;;;;9.25;96.98;96208.41;5038850;28;20052;-56
2021/11/04 04:03:42;;;;;;;17.08;9.40;;;;;;;9.36;96.18;96192.94;5041271;28;20033;-57
2021/11/04 04:06:09;;;;;;;18.88;10.00;;;;;;;8.94;97.91;96197.34;5040012;28;20040;-57
2021/11/04 04:08:39;;;;;;;15.82;8.90;;;;;;;9.23;98.41;96197.28;5040501;28;20029;-56
2021/11/04 04:11:05;;;;;;;18.02;9.80;;;;;;;9.05;100.00;96207.91;5039922;28;20040;-59
2021/11/04 04:13:31;;;;;;;15.85;9.40;;;;;;;9.41;95.58;96211.69;5041597;28;20029;-56
2021/11/04 04:15:57;;;;;;;18.02;9.38;;;;;;;9.22;97.51;96206.00;5039730;28;20040;-57
2021/11/04 04:18:22;;;;;;;17.38;9.45;;;;;;;8.95;98.23;96199.03;5041453;28;20353;-57
2021/11/04 04:20:48;;;;;;;14.80;8.10;;;;;;;9.15;98.04;96194.31;5040215;28;20099;-56
2021/11/04 04:23:14;;;;;;;15.38;8.63;;;;;;;9.06;97.02;96186.19;5041592;28;20032;-57
2021/11/04 04:25:41;;;;;;;13.93;8.02;;;;;;;9.07;98.34;96185.25;5040247;28;20039;-58
2021/11/04 04:28:06;;;;;;;15.57;8.63;;;;;;;8.71;99.68;96196.19;5039823;28;20028;-58
2021/11/04 04:30:32;;;;;;;14.98;7.68;;;;;;;9.00;99.09;96202.16;5039956;28;20029;-57
2021/11/04 04:32:57;;;;;;;15.95;8.75;;;;;;;9.17;98.11;96203.72;5040926;28;20071;-57
2021/11/04 04:35:23;;;;;;;15.25;7.80;;;;;;;9.01;98.84;96203.00;5040920;28;20120;-58
2021/11/04 04:37:48;;;;;;;15.43;8.07;;;;;;;9.17;98.18;96213.25;5039611;28;20050;-56
2021/11/04 04:40:13;;;;;;;16.17;8.48;;;;;;;8.93;98.40;96206.06;5039954;28;21316;-57
2021/11/04 04:42:39;;;;;;;15.23;7.43;;;;;;;9.17;97.43;96195.91;5040734;28;20124;-56
2021/11/04 04:45:08;;;;;;;14.50;8.02;;;;;;;9.15;97.28;96183.91;5040761;28;20036;-57
2021/11/04 04:47:34;;;;;;;11.77;6.50;;;;;;;9.37;95.88;96181.59;5040642;28;20024;-57
2021/11/04 04:49:59;;;;;;;13.15;6.85;;;;;;;9.30;98.05;96192.50;5040790;28;20028;-56
2021/11/04 04:52:26;;;;;;;13.68;6.97;;;;;;;9.23;99.17;96207.69;5038259;28;20502;-57
2021/11/04 04:54:51;;;;;;;11.80;6.68;;;;;;;9.06;99.16;96217.41;5039463;28;20021;-56
2021/11/04 04:57:23;;;;;;;11.73;6.32;;;;;;;9.18;99.78;96231.38;5040321;28;20028;-58
2021/11/04 04:59:50;;;;;;;10.93;6.45;;;;;;;9.15;99.65;96241.13;5039216;28;20040;-58
2021/11/04 05:02:15;;;;;;;10.23;6.10;;;;;;;9.38;98.77;96237.91;5038098;28;20041;-55
2021/11/04 05:04:41;;;;;;;11.27;6.13;;;;;;;9.25;98.12;96252.63;5040452;28;20061;-56
2021/11/04 05:07:06;;;;;;;14.88;7.07;;;;;;;9.16;98.86;96259.25;5040127;28;20114;-58
2021/11/04 05:09:31;;;;;;;12.77;7.07;;;;;;;9.07;100.00;96265.84;5040427;28;20025;-56
2021/11/04 05:11:57;;;;;;;14.05;7.70;;;;;;;8.78;100.00;96277.22;5038849;28;20037;-56
2021/11/04 05:14:22;;;;;;;14.57;7.30;;;;;;;9.18;100.00;96275.59;5040169;28;20024;-56
2021/11/04 05:16:47;;;;;;;13.05;7.35;;;;;;;9.12;99.49;96277.75;5039843;28;20098;-56
2021/11/04 05:19:13;;;;;;;16.23;7.90;;;;;;;9.09;100.00;96285.75;5040449;28;20240;-58
2021/11/04 05:21:39;;;;;;;13.40;7.40;;;;;;;9.38;98.98;96279.53;5038017;28;20123;-58
2021/11/04 05:24:07;;;;;;;16.95;7.57;;;;;;;9.18;100.00;96292.97;5036112;28;20062;-57
2021/11/04 05:26:33;;;;;;;14.07;7.13;;;;;;;9.25;100.00;96295.09;5039125;28;20036;-56
2021/11/04 05:28:58;;;;;;;16.67;9.15;;;;;;;9.20;97.15;96293.72;5040077;28;20033;-56
2021/11/04 05:31:23;;;;;;;15.35;8.27;;;;;;;9.10;100.00;96283.06;5038340;28;20896;-54
2021/11/04 05:33:53;;;;;;;18.75;9.32;;;;;;;9.01;99.12;96296.63;5039928;28;20116;-58
2021/11/04 05:36:18;;;;;;;17.10;9.43;;;;;;;8.77;100.00;96298.97;5039311;28;20037;-57
2021/11/04 05:38:43;;;;;;;19.13;9.38;;;;;;;9.19;98.63;96292.88;5040065;28;20067;-56
2021/11/04 05:41:09;;;;;;;21.92;9.90;;;;;;;8.88;100.00;96301.75;5038093;28;20043;-57
2021/11/04 05:43:34;;;;;;;19.10;9.23;;;;;;;9.04;100.00;96302.47;5039897;28;20048;-57
2021/11/04 05:46:01;;;;;;;22.08;10.00;;;;;;;8.77;100.00;96299.81;5039088;28;20065;-55
2021/11/04 05:48:26;;;;;;;19.23;9.45;;;;;;;9.20;100.00;96291.09;5037554;28;20557;-57
2021/11/04 05:50:52;;;;;;;23.60;10.95;;;;;;;8.88;100.00;96286.16;5037972;28;20056;-55
2021/11/04 05:53:17;;;;;;;23.45;11.18;;;;;;;9.20;100.00;96297.13;5038374;28;20025;-56
2021/11/04 05:55:43;;;;;;;25.17;10.75;;;;;;;9.00;100.00;96305.34;5037675;28;20407;-57
2021/11/04 05:58:08;;;;;;;32.10;12.80;;;;;;;8.70;100.00;96316.69;5039286;28;20133;-57
2021/11/04 06:00:33;;;;;;;23.80;11.38;;;;;;;8.67;100.00;96325.53;5038255;28;20131;-55
2021/11/04 06:02:59;;;;;;;30.98;13.35;;;;;;;8.84;100.00;96331.44;5029067;28;20474;-56
2021/11/04 06:05:24;;;;;;;25.92;12.02;;;;;;;8.85;100.00;96325.31;5040710;28;20045;-56
2021/11/04 06:07:50;;;;;;;22.23;10.55;;;;;;;9.03;100.00;96319.00;5042170;28;20443;-56
2021/11/04 06:10:16;;;;;;;21.00;10.63;;;;;;;9.03;100.00;96316.41;5040869;28;20028;-56
2021/11/04 06:12:42;;;;;;;26.60;11.38;;;;;;;8.95;100.00;96323.00;5041334;28;20029;-56
2021/11/04 06:15:07;;;;;;;21.50;10.27;;;;;;;9.11;100.00;96312.50;5041369;28;20017;-58
2021/11/04 06:17:33;;;;;;;22.10;10.10;;;;;;;9.35;98.81;96305.75;5041486;28;20024;-58
2021/11/04 06:19:58;;;;;;;32.58;13.10;;;;;;;9.17;99.96;96304.28;5041235;28;20031;-56
2021/11/04 06:22:23;;;;;;;26.92;12.07;;;;;;;9.05;100.00;96303.31;5040571;28;20041;-57
2021/11/04 06:24:49;;;;;;;28.55;12.43;;;;;;;9.11;100.00;96296.88;5041675;28;20029;-56
2021/11/04 06:27:14;;;;;;;25.02;11.70;;;;;;;9.16;100.00;96294.84;5041349;28;20037;-58
2021/11/04 06:29:40;;;;;;;23.08;11.50;;;;;;;9.54;97.87;96299.34;5041663;28;20063;-56
2021/11/04 06:32:05;;;;;;;24.52;12.18;;;;;;;8.85;100.00;96307.13;5040368;28;20048;-56
2021/11/04 06:34:31;;;;;;;19.70;9.55;;;;;;;9.30;100.00;96307.81;5040930;28;20035;-56
2021/11/04 06:36:56;;;;;;;24.80;13.23;;;;;;;8.79;100.00;96302.31;5039121;28;20051;-56
2021/11/04 06:39:21;;;;;;;13.05;7.40;;;;;;;9.45;100.00;96308.63;5041403;28;20053;-57
2021/11/04 06:41:47;;;;;;;14.07;6.68;;;;;;;9.44;100.00;96317.34;5039302;28;20584;-57
2021/11/04 06:44:12;;;;;;;26.77;12.15;;;;;;;9.45;100.00;96317.25;5041239;28;20028;-56
2021/11/04 06:46:41;;;;;;;23.25;11.93;;;;;;;9.07;100.00;96319.63;5034731;28;20043;-58
2021/11/04 06:49:08;;;;;;;20.60;8.95;;;;;;;9.37;100.00;96319.47;5039085;28;20032;-56
2021/11/04 06:51:41;;;;;;;21.02;11.15;;;;;;;9.35;99.39;96330.94;5039333;28;20045;-56
2021/11/04 06:54:09;;;;;;;26.40;11.60;;;;;;;9.24;100.00;96348.06;5041075;28;20028;-59
2021/11/04 06:56:46;;;;;;;21.17;11.05;;;;;;;9.31;100.00;96355.47;5039999;28;20040;-57
2021/11/04 06:59:19;;;;;;;23.48;12.45;;;;;;;9.47;99.77;96355.38;5041028;28;20036;-56
2021/11/04 07:01:54;;;;;;;24.02;10.48;;;;;;;9.46;100.00;96359.72;5039017;28;20033;-58
2021/11/04 07:04:34;;;;;;;26.30;13.77;;;;;;;9.10;99.87;96368.03;5040588;28;20028;-58
2021/11/04 07:07:02;;;;;;;24.58;13.50;;;;;;;8.75;100.00;96386.56;5040236;28;20848;-57
2021/11/04 07:09:33;;;;;;;26.25;12.88;;;;;;;9.13;100.00;96389.47;5041070;28;20036;-58
2021/11/04 07:11:59;;;;;;;28.67;14.02;;;;;;;9.10;100.00;96389.69;5039266;28;20091;-58
2021/11/04 07:14:30;;;;;;;26.60;13.80;;;;;;;9.32;98.94;96389.22;5040856;28;20543;-57
2021/11/04 07:17:00;;;;;;;27.45;13.77;;;;;;;9.04;100.00;96395.25;5039936;28;20044;-58
2021/11/04 07:19:27;;;;;;;26.85;13.38;;;;;;;9.19;99.43;96401.28;5040537;28;20406;-58
2021/11/04 07:22:14;;;;;;;23.73;12.73;;;;;;;8.91;100.00;96394.31;5038761;28;20124;-58
2021/11/04 07:24:50;;;;;;;24.30;12.73;;;;;;;8.87;100.00;96396.25;5040923;28;20028;-58
2021/11/04 07:27:30;;;;;;;24.63;12.35;;;;;;;8.97;100.00;96387.00;5029392;28;20132;-57
2021/11/04 07:30:04;;;;;;;24.40;12.55;;;;;;;9.18;100.00;96390.03;5040219;28;20032;-55
2021/11/04 07:32:31;;;;;;;22.35;11.77;;;;;;;9.07;99.88;96384.66;5036617;28;20829;-56
2021/11/04 07:34:57;;;;;;;29.08;11.30;;;;;;;9.23;100.00;96393.19;5038979;28;20729;-58
2021/11/04 07:37:25;;;;;;;23.13;12.43;;;;;;;9.06;100.00;96396.84;5039875;28;20041;-56
2021/11/04 07:39:52;;;;;;;24.95;10.13;;;;;;;9.35;100.00;96393.38;5040297;28;20032;-56
2021/11/04 07:42:17;;;;;;;27.20;13.00;;;;;;;9.11;100.00;96395.72;5040020;28;20045;-58
2021/11/04 07:44:42;;;;;;;22.77;11.77;;;;;;;9.24;100.00;96396.63;5040217;28;20032;-56
2021/11/04 07:47:08;;;;;;;24.45;11.80;;;;;;;9.19;100.00;96399.53;5039941;28;20040;-57
2021/11/04 07:49:34;;;;;;;23.77;11.73;;;;;;;9.54;99.77;96398.25;5039207;28;20029;-56
2021/11/04 07:52:00;;;;;;;21.38;11.60;;;;;;;9.01;100.00;96404.06;5038439;28;20094;-56
2021/11/04 07:54:33;;;;;;;19.85;10.82;;;;;;;9.65;98.12;96401.06;5040008;28;20029;-56
2021/11/04 07:56:58;;;;;;;22.10;11.38;;;;;;;9.34;99.83;96413.34;5040269;28;20509;-58
2021/11/04 07:59:26;;;;;;;21.75;10.32;;;;;;;9.34;100.00;96417.72;5040619;28;20066;-55
2021/11/04 08:01:52;;;;;;;21.77;10.18;;;;;;;9.17;100.00;96418.75;5038205;28;20098;-56
2021/11/04 08:04:17;;;;;;;19.02;9.57;;;;;;;9.10;100.00;96417.44;5040398;28;20029;-56
2021/11/04 08:06:43;;;;;;;16.50;9.32;;;;;;;8.97;100.00;96423.41;5038715;28;20041;-56
2021/11/04 08:09:08;;;;;;;15.82;9.00;;;;;;;9.36;100.00;96426.28;5042071;28;20025;-58
2021/11/04 08:11:34;;;;;;;18.30;9.43;;;;;;;9.18;100.00;96421.25;5040679;28;20116;-57
2021/11/04 08:13:59;;;;;;;19.55;7.95;;;;;;;9.55;100.00;96429.41;5041754;28;20471;-57
2021/11/04 08:16:24;;;;;;;14.68;8.85;;;;;;;8.95;100.00;96430.44;5040710;28;20051;-58
2021/11/04 08:18:50;;;;;;;10.93;7.40;;;;;;;9.19;100.00;96437.69;5042162;28;20051;-56
2021/11/04 08:21:15;;;;;;;13.02;8.15;;;;;;;9.26;100.00;96437.25;5040536;28;20120;-55
2021/11/04 08:23:41;;;;;;;12.70;7.00;;;;;;;9.47;100.00;96443.84;5042030;28;20032;-55
2021/11/04 08:26:07;;;;;;;11.23;6.20;;;;;;;9.33;100.00;96445.50;5039207;28;20045;-58
2021/11/04 08:28:32;;;;;;;7.55;4.55;;;;;;;8.98;100.00;96447.63;5041403;28;20032;-58
2021/11/04 08:30:58;;;;;;;8.35;4.60;;;;;;;8.87;100.00;96450.84;5043565;28;20074;-56
2021/11/04 08:33:23;;;;;;;5.53;3.45;;;;;;;8.68;100.00;96458.91;5043479;28;20914;-56
2021/11/04 08:35:50;;;;;;;4.47;2.90;;;;;;;8.79;100.00;96460.88;5044843;28;20055;-57
2021/11/04 08:38:16;;;;;;;4.75;2.85;;;;;;;8.52;100.00;96466.72;5043301;28;20028;-56
2021/11/04 08:40:42;;;;;;;3.70;2.40;;;;;;;8.39;100.00;96470.94;5043507;28;20037;-58
2021/11/04 08:43:08;;;;;;;5.55;2.80;;;;;;;9.00;100.00;96485.59;5044791;28;20029;-56
2021/11/04 08:45:33;;;;;;;3.30;2.10;;;;;;;8.39;98.76;96489.13;5044597;28;20439;-56
2021/11/04 08:48:00;;;;;;;3.78;2.17;;;;;;;8.26;100.00;96507.16;5045354;28;20950;-56
2021/11/04 08:50:25;;;;;;;3.75;2.10;;;;;;;8.27;100.00;96504.47;5043622;28;20041;-56
2021/11/04 08:52:52;;;;;;;5.00;2.55;;;;;;;8.80;100.00;96504.97;5043153;28;20617;-56
2021/11/04 08:55:19;;;;;;;4.50;2.22;;;;;;;8.79;100.00;96512.88;5043011;28;20127;-56
2021/11/04 08:57:44;;;;;;;4.05;2.30;;;;;;;8.72;100.00;96509.78;5043807;28;20190;-58
2021/11/04 09:00:11;;;;;;;5.25;2.22;;;;;;;8.30;100.00;96514.66;5044281;28;20117;-56
2021/11/04 09:02:36;;;;;;;4.03;2.08;;;;;;;8.63;100.00;96512.91;5043367;28;20025;-56
2021/11/04 09:05:07;;;;;;;7.10;2.40;;;;;;;8.72;100.00;96514.16;5044545;28;20039;-56
2021/11/04 09:07:32;;;;;;;3.60;2.13;;;;;;;8.24;100.00;96525.41;5043795;28;20052;-57
2021/11/04 09:09:58;;;;;;;5.70;2.67;;;;;;;8.50;100.00;96530.94;5042817;28;20029;-56
2021/11/04 09:12:23;;;;;;;7.53;2.78;;;;;;;8.53;100.00;96525.59;5041237;28;20036;-57
2021/11/04 09:14:49;;;;;;;4.15;2.53;;;;;;;8.65;100.00;96530.06;5043075;28;20025;-56
2021/11/04 09:17:14;;;;;;;4.38;2.63;;;;;;;8.59;97.02;96546.03;5042287;28;20064;-57
2021/11/04 09:19:40;;;;;;;6.15;3.05;;;;;;;8.52;100.00;96544.69;5041414;28;20028;-57
2021/11/04 09:22:07;;;;;;;4.47;2.97;;;;;;;8.32;96.86;96543.16;5041424;28;20126;-57
2021/11/04 09:24:32;;;;;;;4.40;3.10;;;;;;;8.28;98.28;96552.06;5031357;28;20036;-56
2021/11/04 09:27:02;;;;;;;7.18;3.88;;;;;;;8.40;98.25;96556.59;5042484;28;20037;-56
2021/11/04 09:29:27;;;;;;;4.97;3.30;;;;;;;8.67;100.00;96558.59;5041066;28;20029;-57
2021/11/04 09:31:54;;;;;;;4.78;3.33;;;;;;;8.39;97.01;96572.25;5039685;28;20102;-58
2021/11/04 09:34:19;;;;;;;5.45;3.40;;;;;;;8.15;96.76;96564.88;5039588;28;20025;-57
2021/11/04 09:36:45;;;;;;;5.07;3.45;;;;;;;8.49;98.28;96576.03;5042098;28;20102;-56
2021/11/04 09:39:10;;;;;;;6.47;3.55;;;;;;;8.31;99.50;96572.69;5041865;28;20029;-56
2021/11/04 09:41:36;;;;;;;4.90;3.28;;;;;;;8.09;99.44;96579.03;5040967;28;20041;-58
2021/11/04 09:44:03;;;;;;;5.97;4.20;;;;;;;8.78;95.86;96586.56;5042607;28;20021;-58
2021/11/04 09:46:29;;;;;;;7.22;4.18;;;;;;;8.75;97.97;96591.94;5041776;28;20065;-57
2021/11/04 09:48:54;;;;;;;6.15;3.97;;;;;;;8.59;97.12;96587.59;5040734;28;20127;-57
2021/11/04 09:51:21;;;;;;;9.77;3.67;;;;;;;8.96;100.00;96593.34;5040427;28;20814;-56
2021/11/04 09:53:48;;;;;;;5.13;3.20;;;;;;;8.63;98.15;96596.06;5042492;28;20037;-57
2021/11/04 09:56:14;;;;;;;6.22;4.05;;;;;;;8.71;97.27;96595.63;5039856;28;20100;-56
2021/11/04 09:58:39;;;;;;;10.18;3.95;;;;;;;8.71;97.84;96603.44;5042169;28;20102;-60
2021/11/04 10:01:19;;;;;;;6.03;3.95;;;;;;;8.84;97.17;96601.81;5040388;28;20032;-58
2021/11/04 10:03:46;;;;;;;5.28;3.70;;;;;;;8.21;96.25;96603.50;5041716;28;20096;-58
2021/11/04 10:06:41;;;;;;;7.55;4.05;;;;;;;9.06;98.40;96606.63;5041364;28;20029;-57
2021/11/04 10:09:12;;;;;;;6.85;4.32;;;;;;;9.48;100.00;96609.44;5031262;28;20446;-56
2021/11/04 10:11:42;;;;;;;4.75;3.45;;;;;;;8.62;96.72;96615.16;5040269;28;20033;-57
2021/11/04 10:14:12;;;;;;;5.53;4.03;;;;;;;8.63;95.47;96615.09;5041669;28;20039;-55
2021/11/04 10:16:40;;;;;;;5.35;3.70;;;;;;;9.13;94.13;96622.75;5041131;28;20592;-58
2021/11/04 10:19:11;;;;;;;5.35;3.35;;;;;;;9.14;97.90;96621.81;5041775;28;20029;-56
2021/11/04 10:21:41;;;;;;;6.70;3.55;;;;;;;8.59;94.22;96631.78;5040362;28;20090;-56
2021/11/04 10:24:15;;;;;;;5.05;3.67;;;;;;;9.40;96.88;96636.75;5039660;28;20040;-58
2021/11/04 10:26:41;;;;;;;6.45;3.85;;;;;;;9.27;96.11;96644.44;5041384;28;20438;-57
2021/11/04 10:29:09;;;;;;;5.22;3.92;;;;;;;9.33;94.94;96638.03;5041640;28;20577;-57
2021/11/04 10:31:47;;;;;;;4.55;3.58;;;;;;;8.96;92.02;96640.13;5039936;28;20123;-57
2021/11/04 10:34:37;;;;;;;5.20;3.80;;;;;;;9.10;94.24;96648.91;5027808;28;20053;-57
2021/11/04 10:37:16;;;;;;;5.20;3.65;;;;;;;9.03;94.59;96654.47;5040088;28;20049;-58
2021/11/04 10:39:42;;;;;;;6.00;4.00;;;;;;;8.92;93.78;96664.66;5041203;28;20162;-58
2021/11/04 10:42:08;;;;;;;5.03;3.80;;;;;;;9.18;97.06;96659.75;5040231;28;20119;-56
2021/11/04 10:44:33;;;;;;;6.10;3.88;;;;;;;9.29;94.71;96664.34;5041301;28;20020;-57
2021/11/04 10:46:59;;;;;;;7.18;4.60;;;;;;;8.99;95.03;96663.38;5040352;28;20037;-58
2021/11/04 10:49:27;;;;;;;5.50;4.22;;;;;;;8.65;93.93;96665.22;5041456;28;20175;-57
2021/11/04 10:51:57;;;;;;;6.38;4.60;;;;;;;9.17;96.76;96671.91;5038737;28;20515;-56
2021/11/04 10:54:23;;;;;;;6.18;4.28;;;;;;;8.99;96.37;96673.78;5029939;28;20542;-57
2021/11/04 10:56:53;;;;;;;6.65;4.50;;;;;;;8.89;97.52;96672.59;5040598;28;20129;-58
2021/11/04 10:59:20;;;;;;;6.32;4.18;;;;;;;8.68;97.33;96680.66;5040864;28;20032;-57
2021/11/04 11:01:48;;;;;;;6.05;4.50;;;;;;;9.10;96.25;96686.19;5039255;28;20045;-57
2021/11/04 11:04:19;;;;;;;6.45;4.60;;;;;;;8.98;97.34;96690.28;5040460;28;20083;-57
2021/11/04 11:06:51;;;;;;;7.15;4.05;;;;;;;8.96;96.77;96689.53;5039790;28;20669;-56
2021/11/04 11:09:18;;;;;;;5.25;3.72;;;;;;;8.86;94.61;96691.00;5040695;28;20064;-58
2021/11/04 11:11:53;;;;;;;5.63;4.40;;;;;;;9.44;92.75;96689.47;5038963;28;20519;-58
2021/11/04 11:14:21;;;;;;;6.43;4.13;;;;;;;9.53;93.23;96682.91;5040504;28;20044;-56
2021/11/04 11:16:54;;;;;;;6.15;4.03;;;;;;;9.06;93.65;96697.66;5040509;28;20494;-58
2021/11/04 11:19:28;;;;;;;7.45;4.13;;;;;;;9.21;94.28;96696.81;5040648;28;20195;-56
2021/11/04 11:21:54;;;;;;;7.38;4.18;;;;;;;9.30;96.43;96700.69;5038745;28;20126;-56
2021/11/04 11:24:32;;;;;;;6.30;4.15;;;;;;;8.95;95.79;96700.88;5040408;28;20017;-56
2021/11/04 11:26:59;;;;;;;5.38;3.80;;;;;;;8.85;95.21;96702.31;5040507;28;20033;-56
2021/11/04 11:29:30;;;;;;;9.88;4.22;;;;;;;8.84;96.73;96711.00;5040786;28;20604;-57